createdAt,value
2019-05-10T00:02:14.401Z,2
2019-05-10T00:07:16.863Z,2
2019-05-10T00:12:19.337Z,2
2019-05-10T00:17:21.822Z,3
2019-05-10T00:22:24.239Z,3
2019-05-10T00:27:26.691Z,3
2019-05-10T00:32:29.149Z,4
2019-05-10T00:37:31.659Z,3
2019-05-10T00:42:34.133Z,4
2019-05-10T00:47:36.585Z,4
2019-05-10T00:52:38.998Z,4
2019-05-10T00:57:41.428Z,4
2019-05-10T01:02:44.258Z,5
2019-05-10T01:07:46.375Z,5
2019-05-10T01:12:48.868Z,4
2019-05-10T01:17:51.279Z,3
2019-05-10T01:22:53.752Z,3
2019-05-10T01:27:56.228Z,2
2019-05-10T01:32:58.747Z,3
2019-05-10T01:38:01.116Z,3
2019-05-10T01:43:03.566Z,3
2019-05-10T01:48:06.033Z,3
2019-05-10T01:53:08.578Z,3
2019-05-10T01:58:10.926Z,3
2019-05-10T02:03:13.610Z,3
2019-05-10T02:08:15.888Z,4
2019-05-10T02:13:18.360Z,5
2019-05-10T02:18:20.912Z,5
2019-05-10T02:23:23.512Z,5
2019-05-10T02:28:25.740Z,5
2019-05-10T02:33:28.186Z,5
2019-05-10T02:38:30.602Z,5
2019-05-10T02:43:33.095Z,6
2019-05-10T02:48:35.548Z,6
2019-05-10T02:53:38.097Z,7
2019-05-10T02:58:40.533Z,9
2019-05-10T03:03:42.879Z,6
2019-05-10T03:08:45.361Z,7
2019-05-10T03:13:47.792Z,6
2019-05-10T03:18:50.258Z,8
2019-05-10T03:23:52.788Z,9
2019-05-10T03:29:00.030Z,8
2019-05-10T05:34:56.628Z,6
2019-05-10T05:39:59.641Z,6
2019-05-10T05:45:01.616Z,6
2019-05-10T05:50:04.101Z,6
2019-05-10T05:55:06.776Z,6
2019-05-10T06:00:09.185Z,5
2019-05-10T06:05:11.503Z,5
2019-05-10T06:10:19.753Z,5
2019-05-10T06:15:16.291Z,5
2019-05-10T06:20:18.817Z,6
2019-05-10T06:25:37.162Z,5
2019-05-10T06:30:23.729Z,5
2019-05-10T06:35:26.357Z,6
2019-05-10T06:45:31.013Z,4
2019-05-10T06:50:33.491Z,5
2019-05-10T06:55:36.020Z,6
2019-05-10T07:00:44.559Z,4
2019-05-10T07:05:41.022Z,4
2019-05-10T07:10:43.376Z,4
2019-05-10T07:15:45.835Z,3
2019-05-10T07:20:48.238Z,6
2019-05-10T07:25:50.681Z,4
2019-05-10T07:30:53.566Z,3
2019-05-10T07:35:55.634Z,4
2019-05-10T07:40:58.195Z,3
2019-05-10T07:46:06.020Z,4
2019-05-10T07:51:03.074Z,2
2019-05-10T07:56:06.488Z,2
2019-05-10T08:01:07.949Z,3
2019-05-10T08:06:10.337Z,3
2019-05-10T08:11:12.807Z,2
2019-05-10T08:16:20.119Z,3
2019-05-10T08:21:22.068Z,3
2019-05-10T08:26:24.188Z,3
2019-05-10T08:31:25.638Z,3
2019-05-10T08:36:25.314Z,2
2019-05-10T08:41:27.550Z,3
2019-05-10T08:46:40.015Z,3
2019-05-10T08:51:34.452Z,3
2019-05-10T08:56:35.061Z,2
2019-05-10T09:01:44.231Z,2
2019-05-10T09:06:41.798Z,2
2019-05-10T09:11:44.318Z,3
2019-05-10T09:16:54.295Z,4
2019-05-10T09:21:49.436Z,3
2019-05-10T09:26:52.641Z,2
2019-05-10T09:31:53.412Z,3
2019-05-10T09:36:54.632Z,2
2019-05-10T09:41:57.136Z,2
2019-05-10T09:47:01.874Z,6
2019-05-10T09:52:04.383Z,2
2019-05-10T09:57:04.494Z,1
2019-05-10T10:02:14.258Z,5
2019-05-10T10:07:09.387Z,2
2019-05-10T10:12:11.926Z,3
2019-05-10T10:17:17.240Z,3
2019-05-10T10:22:17.364Z,2
2019-05-10T10:27:19.196Z,3
2019-05-10T10:32:24.549Z,1
2019-05-10T10:37:28.250Z,2
2019-05-10T10:42:26.611Z,4
2019-05-10T10:52:31.454Z,1
2019-05-10T10:57:33.981Z,2
2019-05-10T11:02:36.434Z,1
2019-05-10T11:07:44.243Z,3
2019-05-10T11:12:41.476Z,1
2019-05-10T11:17:44.016Z,3
2019-05-10T11:22:49.505Z,2
2019-05-10T11:27:53.678Z,2
2019-05-10T11:32:51.551Z,3
2019-05-10T11:37:53.857Z,4
2019-05-10T11:42:56.084Z,4
2019-05-10T11:47:59.604Z,1
2019-05-10T11:53:01.086Z,3
2019-05-10T11:58:08.583Z,2
2019-05-10T12:03:11.123Z,2
2019-05-10T12:08:08.429Z,2
2019-05-10T12:13:18.455Z,1
2019-05-10T12:18:14.620Z,3
2019-05-10T12:26:40.361Z,1
2019-05-10T12:28:21.771Z,2
2019-05-10T12:33:24.826Z,3
2019-05-10T12:38:28.494Z,3
2019-05-10T12:43:25.545Z,1
2019-05-10T12:48:27.998Z,1
2019-05-10T12:53:31.503Z,2
2019-05-10T12:58:33.041Z,2
2019-05-10T13:03:35.426Z,1
2019-05-10T13:08:38.000Z,1
2019-05-10T13:13:40.411Z,2
2019-05-10T13:18:50.144Z,2
2019-05-10T13:23:45.232Z,3
2019-05-10T13:28:47.699Z,2
2019-05-10T13:33:50.124Z,3
2019-05-10T13:38:52.641Z,2
2019-05-10T13:43:58.706Z,1
2019-05-10T13:48:57.535Z,2
2019-05-10T13:54:00.885Z,3
2019-05-10T13:59:13.489Z,2
2019-05-10T14:04:04.996Z,2
2019-05-10T14:09:07.456Z,4
2019-05-10T14:14:14.383Z,3
2019-05-10T14:19:15.789Z,3
2019-05-10T14:24:15.679Z,2
2019-05-10T14:29:17.211Z,3
2019-05-10T14:34:19.626Z,3
2019-05-10T14:39:22.259Z,2
2019-05-10T14:44:25.028Z,3
2019-05-10T14:49:27.124Z,3
2019-05-10T14:54:42.497Z,2
2019-05-10T14:59:31.923Z,3
2019-05-10T15:04:49.674Z,1
2019-05-10T15:09:37.050Z,1
2019-05-10T15:14:39.283Z,1
2019-05-10T15:19:41.770Z,2
2019-05-10T15:29:46.738Z,1
2019-05-10T15:35:04.881Z,4
2019-05-10T15:44:54.201Z,4
2019-05-10T15:49:59.844Z,2
2019-05-10T15:54:59.145Z,3
2019-05-10T16:00:01.513Z,2
2019-05-10T16:05:03.924Z,1
2019-05-10T16:10:06.423Z,2
2019-05-10T16:15:13.510Z,4
2019-05-10T16:20:11.244Z,2
2019-05-10T16:25:13.690Z,2
2019-05-10T16:30:17.652Z,3
2019-05-10T16:35:21.580Z,2
2019-05-10T16:40:21.235Z,4
2019-05-10T16:45:23.623Z,2
2019-05-10T16:50:31.431Z,2
2019-05-10T16:55:28.465Z,2
2019-05-10T17:00:31.043Z,4
2019-05-10T17:05:33.401Z,2
2019-05-10T17:10:35.803Z,2
2019-05-10T17:15:39.664Z,1
2019-05-10T17:20:45.332Z,1
2019-05-10T17:25:43.192Z,2
2019-05-10T17:30:45.659Z,2
2019-05-10T17:35:48.155Z,2
2019-05-10T17:40:50.656Z,2
2019-05-10T17:45:53.052Z,4
2019-05-10T17:50:55.475Z,3
2019-05-10T17:56:02.526Z,3
2019-05-10T18:01:00.410Z,4
2019-05-10T18:06:02.881Z,8
2019-05-10T18:11:06.174Z,8
2019-05-10T18:16:09.336Z,4
2019-05-10T18:21:15.715Z,3
2019-05-10T18:26:12.693Z,5
2019-05-10T18:31:15.206Z,3
2019-05-10T18:36:17.624Z,4
2019-05-10T18:41:20.109Z,3
2019-05-10T18:46:24.553Z,5
2019-05-10T18:51:26.432Z,4
2019-05-10T18:56:31.118Z,6
2019-05-10T19:01:32.740Z,4
2019-05-10T19:06:32.361Z,6
2019-05-10T19:11:38.821Z,4
2019-05-10T19:16:37.273Z,4
2019-05-10T19:21:39.841Z,7
2019-05-10T19:26:42.309Z,9
2019-05-10T19:31:44.692Z,13
2019-05-10T19:36:47.481Z,12
2019-05-10T19:41:49.611Z,10
2019-05-10T19:46:52.023Z,10
2019-05-10T19:51:54.564Z,8
2019-05-10T19:56:56.927Z,6
2019-05-10T20:01:59.472Z,7
2019-05-10T20:07:02.162Z,9
2019-05-10T20:12:04.311Z,10
2019-05-10T20:17:06.944Z,8
2019-05-10T20:22:09.206Z,8
2019-05-10T20:32:14.203Z,6
2019-05-10T20:37:16.593Z,6
2019-05-10T20:42:19.105Z,9
2019-05-10T20:47:21.600Z,8
2019-05-10T20:52:24.064Z,10
2019-05-10T20:57:26.409Z,13
2019-05-10T21:02:28.886Z,7
2019-05-10T21:07:31.362Z,11
2019-05-10T21:12:34.251Z,13
2019-05-10T21:17:36.269Z,12
2019-05-10T21:22:38.842Z,13
2019-05-10T21:27:41.247Z,14
2019-05-10T21:32:43.907Z,12
2019-05-10T21:37:46.226Z,12
2019-05-10T21:42:48.686Z,11
2019-05-10T21:47:52.062Z,12
2019-05-10T21:52:53.648Z,11
2019-05-10T21:57:55.929Z,14
2019-05-10T22:02:58.391Z,14
2019-05-10T22:08:00.805Z,13
2019-05-10T22:13:03.331Z,13
2019-05-10T22:18:05.827Z,13
2019-05-10T22:23:08.191Z,12
2019-05-10T22:28:10.637Z,13
2019-05-10T22:33:13.424Z,15
2019-05-10T22:38:15.676Z,13
2019-05-10T22:43:18.338Z,14
2019-05-10T22:48:20.500Z,13
2019-05-10T22:53:22.968Z,13
2019-05-10T22:58:25.381Z,11
2019-05-10T23:03:27.912Z,12
2019-05-10T23:08:30.340Z,15
2019-05-10T23:13:32.786Z,14
2019-05-10T23:18:35.411Z,15
2019-05-10T23:23:37.774Z,13
2019-05-10T23:28:40.289Z,14
2019-05-10T23:33:42.790Z,14
2019-05-10T23:38:45.181Z,15
2019-05-10T23:43:47.501Z,22
2019-05-10T23:48:50.357Z,20
2019-05-10T23:53:52.574Z,17
2019-05-10T23:58:54.928Z,14
